Time;durP1;ratioP1;P1;durP2;ratioP2;P2;SDS_P1;SDS_P2;PMS_P1;PMS_P2;Temp;Humidity;BMP_temperature;BMP_pressure;BME280_temperature;BME280_humidity;BME280_pressure;Samples;Min_cycle;Max_cycle;Signal;HPM_P1;HPM_P2
2023/05/22 00:01:36;;;;;;;25.20;22.80;;;19.30;99.90;;;;;;5021790;28;20165;-73
2023/05/22 00:04:03;;;;;;;24.60;22.20;;;19.30;99.90;;;;;;5019453;28;20624;-72
2023/05/22 00:06:29;;;;;;;26.77;24.07;;;19.30;99.90;;;;;;5019668;28;20625;-73
2023/05/22 00:08:54;;;;;;;26.33;23.60;;;19.30;99.90;;;;;;5026198;28;20600;-73
2023/05/22 00:11:21;;;;;;;25.30;22.70;;;19.30;99.90;;;;;;5022323;28;20616;-73
2023/05/22 00:13:47;;;;;;;25.10;22.70;;;19.20;99.90;;;;;;5013836;28;20722;-73
2023/05/22 00:16:12;;;;;;;24.83;22.27;;;19.20;99.90;;;;;;5022681;28;20997;-73
2023/05/22 00:18:41;;;;;;;24.70;22.30;;;19.20;99.90;;;;;;5020974;28;20590;-73
2023/05/22 00:21:08;;;;;;;23.57;21.07;;;19.20;99.90;;;;;;5020341;28;20174;-73
2023/05/22 00:23:33;;;;;;;25.27;22.80;;;19.20;99.90;;;;;;5023599;28;20605;-73
2023/05/22 00:25:59;;;;;;;26.93;24.10;;;19.20;99.90;;;;;;5017180;28;20801;-73
2023/05/22 00:28:25;;;;;;;25.13;22.80;;;19.20;99.90;;;;;;5022402;28;20193;-73
2023/05/22 00:30:51;;;;;;;25.00;22.60;;;19.10;99.90;;;;;;5012309;28;20180;-74
2023/05/22 00:33:17;;;;;;;24.97;22.37;;;19.10;99.90;;;;;;5029554;28;20620;-73
2023/05/22 00:35:42;;;;;;;24.63;22.13;;;19.10;99.90;;;;;;5012664;28;20565;-73
2023/05/22 00:38:08;;;;;;;24.80;21.57;;;19.10;99.90;;;;;;5030820;28;20213;-72
2023/05/22 00:40:34;;;;;;;24.47;21.87;;;19.10;99.90;;;;;;5032938;28;20260;-72
2023/05/22 00:43:06;;;;;;;22.80;20.60;;;19.00;99.90;;;;;;5033007;28;20527;-73
2023/05/22 00:45:32;;;;;;;24.33;22.03;;;19.10;99.90;;;;;;5033572;28;20170;-72
2023/05/22 00:47:57;;;;;;;23.53;21.33;;;19.00;99.90;;;;;;5032657;28;20604;-74
2023/05/22 00:50:23;;;;;;;22.57;20.27;;;19.00;99.90;;;;;;5034475;28;20220;-73
2023/05/22 00:52:49;;;;;;;24.23;21.93;;;19.00;99.90;;;;;;5031301;28;20809;-73
2023/05/22 00:55:15;;;;;;;23.83;21.20;;;18.90;99.90;;;;;;5019160;28;20206;-73
2023/05/22 00:57:42;;;;;;;21.80;19.70;;;19.00;99.90;;;;;;5033906;28;20595;-73
2023/05/22 01:00:13;;;;;;;23.20;21.00;;;18.90;99.90;;;;;;5032825;28;21151;-73
2023/05/22 01:02:41;;;;;;;22.70;20.37;;;18.90;99.90;;;;;;5031836;28;20588;-73
2023/05/22 01:05:09;;;;;;;20.77;18.87;;;18.90;99.90;;;;;;4997684;28;20945;-72
2023/05/22 01:07:36;;;;;;;20.43;18.40;;;18.90;99.90;;;;;;5012732;28;20974;-73
2023/05/22 01:10:04;;;;;;;21.40;19.23;;;18.90;99.90;;;;;;4996609;28;20573;-73
2023/05/22 01:12:33;;;;;;;23.43;21.03;;;18.90;99.90;;;;;;5012591;28;20664;-73
2023/05/22 01:15:25;;;;;;;20.80;18.70;;;18.90;99.90;;;;;;5004654;28;20626;-73
2023/05/22 01:18:11;;;;;;;18.47;16.67;;;18.80;99.90;;;;;;5037410;28;20624;-73
2023/05/22 01:20:43;;;;;;;19.03;17.17;;;18.80;99.90;;;;;;5003897;28;20639;-72
2023/05/22 01:23:30;;;;;;;21.50;19.37;;;18.80;99.90;;;;;;5012205;28;21162;-73
2023/05/22 01:26:16;;;;;;;20.83;18.83;;;18.80;99.90;;;;;;5006251;28;20621;-73
2023/05/22 01:29:14;;;;;;;18.60;16.83;;;18.80;99.90;;;;;;5016003;28;20584;-73
2023/05/22 01:31:42;;;;;;;19.97;18.10;;;18.80;99.90;;;;;;4987471;28;20608;-73
2023/05/22 01:34:13;;;;;;;21.97;19.77;;;18.80;99.90;;;;;;5019387;28;20633;-73
2023/05/22 01:36:40;;;;;;;21.23;19.10;;;18.80;99.90;;;;;;5012624;28;20628;-73
2023/05/22 01:39:06;;;;;;;21.63;19.63;;;18.80;99.90;;;;;;4996017;28;20679;-73
2023/05/22 01:41:36;;;;;;;23.10;20.83;;;18.80;99.90;;;;;;5011530;28;21152;-73
2023/05/22 01:44:02;;;;;;;20.27;18.37;;;18.80;99.90;;;;;;4995926;28;20593;-73
2023/05/22 01:46:32;;;;;;;20.03;17.50;;;18.80;99.90;;;;;;4995582;28;20636;-73
2023/05/22 01:48:58;;;;;;;20.37;18.47;;;18.80;99.90;;;;;;5012036;28;20581;-80
2023/05/22 01:51:47;;;;;;;22.00;19.80;;;18.80;99.90;;;;;;5005271;28;20640;-80
2023/05/22 01:54:31;;;;;;;19.83;17.97;;;18.80;99.90;;;;;;4996261;28;20723;-80
2023/05/22 01:57:16;;;;;;;22.20;19.93;;;18.80;99.90;;;;;;5016321;28;21153;-81
2023/05/22 01:59:58;;;;;;;21.47;19.40;;;18.80;99.90;;;;;;5012227;28;20615;-81
2023/05/22 02:02:26;;;;;;;22.97;20.73;;;18.70;99.90;;;;;;4995321;28;20676;-81
2023/05/22 02:04:57;;;;;;;22.13;19.90;;;18.70;99.90;;;;;;5012331;28;20611;-80
2023/05/22 02:07:24;;;;;;;22.00;19.87;;;18.70;99.90;;;;;;5012276;28;20625;-79
2023/05/22 02:09:52;;;;;;;22.17;20.03;;;18.70;99.90;;;;;;4995563;28;20589;-79
2023/05/22 02:12:20;;;;;;;22.17;20.07;;;18.70;99.90;;;;;;5010850;28;20581;-79
2023/05/22 02:14:46;;;;;;;21.77;19.80;;;18.70;99.90;;;;;;5011949;28;20730;-79
2023/05/22 02:17:12;;;;;;;23.60;20.90;;;18.60;99.90;;;;;;5011267;28;20621;-80
2023/05/22 02:19:38;;;;;;;23.33;21.03;;;18.60;99.90;;;;;;5005457;28;20585;-79
2023/05/22 02:22:04;;;;;;;24.77;22.27;;;18.60;99.90;;;;;;5028060;28;20185;-80
2023/05/22 02:24:35;;;;;;;24.40;22.00;;;18.60;99.90;;;;;;4996429;28;20953;-80
2023/05/22 02:27:01;;;;;;;23.43;21.23;;;18.60;99.90;;;;;;4978787;28;20671;-80
2023/05/22 02:29:27;;;;;;;26.23;23.40;;;18.60;99.90;;;;;;5011253;28;20608;-80
2023/05/22 02:31:53;;;;;;;25.97;23.43;;;18.50;99.90;;;;;;5011221;28;20181;-81
2023/05/22 02:34:19;;;;;;;26.97;24.33;;;18.50;99.90;;;;;;5016801;28;20206;-80
2023/05/22 02:36:46;;;;;;;27.80;24.80;;;18.50;99.90;;;;;;4995034;28;20618;-80
2023/05/22 02:39:12;;;;;;;26.80;24.07;;;18.50;99.90;;;;;;5010967;28;20289;-80
2023/05/22 02:41:38;;;;;;;26.83;24.10;;;18.50;99.90;;;;;;4994679;28;20608;-81
2023/05/22 02:44:04;;;;;;;24.90;22.37;;;18.50;99.90;;;;;;5010844;28;20597;-80
2023/05/22 02:46:30;;;;;;;26.37;23.57;;;18.50;99.90;;;;;;4994987;28;20616;-81
2023/05/22 02:48:55;;;;;;;27.47;24.80;;;18.50;99.90;;;;;;4994603;28;20577;-80
2023/05/22 02:51:24;;;;;;;25.87;23.27;;;18.50;99.90;;;;;;4994175;28;20174;-81
2023/05/22 02:53:50;;;;;;;27.77;25.17;;;18.50;99.90;;;;;;5013005;28;20629;-80
2023/05/22 02:56:17;;;;;;;25.60;23.20;;;18.50;99.90;;;;;;5011129;28;20276;-81
2023/05/22 02:58:43;;;;;;;25.73;23.03;;;18.40;99.90;;;;;;5011104;28;20565;-81
2023/05/22 03:01:09;;;;;;;29.23;26.00;;;18.40;99.90;;;;;;5009266;28;20569;-81
2023/05/22 03:03:35;;;;;;;27.73;24.93;;;18.50;99.90;;;;;;5010880;28;20190;-80
2023/05/22 03:06:03;;;;;;;30.13;26.93;;;18.40;99.90;;;;;;5010565;28;20182;-80
2023/05/22 03:08:30;;;;;;;30.27;27.07;;;18.40;99.90;;;;;;4994420;28;20631;-79
2023/05/22 03:10:57;;;;;;;30.13;27.00;;;18.40;99.90;;;;;;4999367;28;20680;-79
2023/05/22 03:13:26;;;;;;;30.23;27.33;;;18.40;99.90;;;;;;4994880;28;20776;-79
2023/05/22 03:15:52;;;;;;;30.50;27.40;;;18.40;99.90;;;;;;5009972;28;20732;-80
2023/05/22 03:18:18;;;;;;;30.23;27.33;;;18.40;99.90;;;;;;4994246;28;20624;-80
2023/05/22 03:20:44;;;;;;;29.57;26.57;;;18.40;99.90;;;;;;5010129;28;20609;-80
2023/05/22 03:23:11;;;;;;;29.07;26.00;;;18.40;99.90;;;;;;5009735;28;20596;-79
2023/05/22 03:25:37;;;;;;;34.73;28.57;;;18.30;99.90;;;;;;4993763;28;20585;-80
2023/05/22 03:28:03;;;;;;;29.20;26.20;;;18.30;99.90;;;;;;4994545;28;20621;-81
2023/05/22 03:30:33;;;;;;;32.03;26.80;;;18.30;99.90;;;;;;5011584;28;20624;-81
2023/05/22 03:33:20;;;;;;;27.03;24.37;;;18.30;99.90;;;;;;4996809;28;20635;-81
2023/05/22 03:35:45;;;;;;;27.20;24.33;;;18.30;99.90;;;;;;5011614;28;20585;-81
2023/05/22 03:38:11;;;;;;;28.40;25.60;;;18.30;99.90;;;;;;5013053;28;20202;-80
2023/05/22 03:40:37;;;;;;;27.60;24.73;;;18.30;99.90;;;;;;5014647;28;20181;-78
2023/05/22 03:43:03;;;;;;;27.60;24.87;;;18.20;99.90;;;;;;5003740;28;20184;-79
2023/05/22 03:45:29;;;;;;;30.00;25.03;;;18.20;99.90;;;;;;5008084;28;20597;-78
2023/05/22 03:47:55;;;;;;;27.23;23.30;;;18.20;99.90;;;;;;5010869;28;20193;-79
2023/05/22 03:50:22;;;;;;;24.90;22.30;;;18.30;99.90;;;;;;5013353;28;20603;-78
2023/05/22 03:52:48;;;;;;;23.90;21.40;;;18.30;99.90;;;;;;5029356;28;21128;-79
2023/05/22 03:55:15;;;;;;;24.87;22.37;;;18.20;99.90;;;;;;5029340;28;20209;-79
2023/05/22 03:57:40;;;;;;;24.93;21.57;;;18.20;99.90;;;;;;5029772;28;20197;-79
2023/05/22 04:00:11;;;;;;;24.40;21.97;;;18.20;99.90;;;;;;5028333;28;20564;-79
2023/05/22 04:02:43;;;;;;;25.10;21.10;;;18.20;99.90;;;;;;5029534;28;20208;-79
2023/05/22 04:05:09;;;;;;;22.43;20.23;;;18.20;99.90;;;;;;5029291;28;20797;-79
2023/05/22 04:07:35;;;;;;;23.17;20.73;;;18.20;99.90;;;;;;5029724;28;21194;-79
2023/05/22 04:10:05;;;;;;;22.37;20.20;;;18.20;99.90;;;;;;5029286;28;21789;-79
2023/05/22 04:12:31;;;;;;;23.80;21.40;;;18.20;99.90;;;;;;5015076;28;20596;-79
2023/05/22 04:14:57;;;;;;;24.00;20.73;;;18.20;99.90;;;;;;5033139;28;20643;-77
2023/05/22 04:17:29;;;;;;;24.20;21.70;;;18.20;99.90;;;;;;5019574;28;21242;-76
2023/05/22 04:19:57;;;;;;;22.87;20.27;;;18.20;99.90;;;;;;5013517;28;20526;-76
2023/05/22 04:22:23;;;;;;;23.10;20.73;;;18.20;99.90;;;;;;4996781;28;20577;-75
2023/05/22 04:24:49;;;;;;;24.50;20.00;;;18.20;99.90;;;;;;5003300;28;20597;-75
2023/05/22 04:27:15;;;;;;;23.53;21.13;;;18.20;99.90;;;;;;4996879;28;21180;-76
2023/05/22 04:29:43;;;;;;;22.17;19.97;;;18.20;99.90;;;;;;5013721;28;20577;-76
2023/05/22 04:32:09;;;;;;;22.30;20.00;;;18.30;99.90;;;;;;4996575;28;20581;-77
2023/05/22 04:34:36;;;;;;;24.60;22.20;;;18.30;99.90;;;;;;4997268;28;21041;-76
2023/05/22 04:37:03;;;;;;;22.70;20.27;;;18.30;99.90;;;;;;5012811;28;20645;-76
2023/05/22 04:39:30;;;;;;;22.87;20.60;;;18.30;99.90;;;;;;5013728;28;20832;-77
2023/05/22 04:41:57;;;;;;;23.83;21.50;;;18.30;99.90;;;;;;5012784;28;20581;-76
2023/05/22 04:44:22;;;;;;;23.57;20.60;;;18.30;99.90;;;;;;5013170;28;20673;-77
2023/05/22 04:46:50;;;;;;;24.83;22.10;;;18.40;99.90;;;;;;5012923;28;20202;-76
2023/05/22 04:49:16;;;;;;;24.20;21.80;;;18.40;99.90;;;;;;4996842;28;20651;-77
2023/05/22 04:51:42;;;;;;;24.50;22.10;;;18.50;99.90;;;;;;5012366;28;20174;-76
2023/05/22 04:54:07;;;;;;;23.00;20.80;;;18.50;99.90;;;;;;4996610;28;20707;-76
2023/05/22 04:56:33;;;;;;;24.50;22.03;;;18.60;99.90;;;;;;5014319;28;20217;-76
2023/05/22 04:59:00;;;;;;;24.10;21.77;;;18.70;99.90;;;;;;4996450;28;20201;-76
2023/05/22 05:01:29;;;;;;;24.70;21.73;;;18.80;99.90;;;;;;5001509;28;20212;-76
2023/05/22 05:03:55;;;;;;;23.47;21.17;;;18.80;99.90;;;;;;5012541;28;20600;-76
2023/05/22 05:06:20;;;;;;;24.53;22.20;;;18.90;99.90;;;;;;4996570;28;20597;-76
2023/05/22 05:08:48;;;;;;;25.20;22.50;;;19.00;99.90;;;;;;4996340;28;20587;-75
2023/05/22 05:11:14;;;;;;;23.73;21.50;;;19.00;99.90;;;;;;5013676;28;20532;-76
2023/05/22 05:13:40;;;;;;;25.97;23.17;;;19.10;99.90;;;;;;5011963;28;20652;-76
2023/05/22 05:16:09;;;;;;;24.57;21.10;;;19.10;99.90;;;;;;5012419;28;20189;-77
2023/05/22 05:18:34;;;;;;;26.10;22.90;;;19.20;99.90;;;;;;5010612;28;21027;-78
2023/05/22 05:21:00;;;;;;;23.93;20.83;;;19.30;99.90;;;;;;5012011;28;20647;-79
2023/05/22 05:23:26;;;;;;;22.53;20.43;;;19.40;99.90;;;;;;5011142;28;20171;-79
2023/05/22 05:25:53;;;;;;;23.90;21.50;;;19.50;99.90;;;;;;5011821;28;20600;-79
2023/05/22 05:28:19;;;;;;;21.90;19.77;;;19.60;99.90;;;;;;5012531;28;20616;-79
2023/05/22 05:30:45;;;;;;;23.10;20.50;;;19.80;99.90;;;;;;4995364;28;20592;-79
2023/05/22 05:33:20;;;;;;;22.83;20.67;;;19.90;99.90;;;;;;4996356;28;20576;-80
2023/05/22 05:36:04;;;;;;;23.40;21.10;;;20.10;99.90;;;;;;5012097;28;20634;-79
2023/05/22 05:38:31;;;;;;;23.90;21.57;;;20.20;99.90;;;;;;4996282;28;21223;-79
2023/05/22 05:40:57;;;;;;;24.87;22.40;;;20.40;99.90;;;;;;4995463;28;20600;-79
2023/05/22 05:43:24;;;;;;;24.90;22.17;;;20.50;99.90;;;;;;5012328;28;20585;-79
2023/05/22 05:45:50;;;;;;;23.73;21.20;;;20.60;99.90;;;;;;5011824;28;20573;-79
2023/05/22 05:48:16;;;;;;;21.90;19.23;;;20.80;99.90;;;;;;4995822;28;20621;-78
2023/05/22 05:50:44;;;;;;;21.90;19.80;;;21.10;99.90;;;;;;5011701;28;20639;-79
2023/05/22 05:53:10;;;;;;;23.03;20.73;;;21.50;99.90;;;;;;5011819;28;21158;-79
2023/05/22 05:55:37;;;;;;;21.93;19.73;;;21.80;99.90;;;;;;5012279;28;20584;-80
2023/05/22 05:58:03;;;;;;;22.13;19.97;;;22.10;99.90;;;;;;5013051;28;20625;-77
2023/05/22 06:00:41;;;;;;;19.80;17.80;;;22.40;99.90;;;;;;5012028;28;20597;-78
2023/05/22 06:03:07;;;;;;;21.37;19.13;;;22.50;99.90;;;;;;5012641;28;20592;-79
2023/05/22 06:05:59;;;;;;;20.23;18.37;;;22.60;99.90;;;;;;5009862;28;20601;-79
2023/05/22 06:08:45;;;;;;;21.67;19.37;;;22.70;99.90;;;;;;5013054;28;20977;-79
2023/05/22 06:11:11;;;;;;;21.50;19.50;;;22.70;99.90;;;;;;5011102;28;21053;-79
2023/05/22 06:13:47;;;;;;;22.33;20.27;;;22.70;99.90;;;;;;5011891;28;20632;-80
2023/05/22 06:16:13;;;;;;;24.23;21.93;;;22.70;99.90;;;;;;5000873;28;20608;-79
2023/05/22 06:18:39;;;;;;;22.20;19.90;;;22.60;99.90;;;;;;5011579;28;20680;-79
2023/05/22 06:21:06;;;;;;;23.80;21.37;;;22.50;99.90;;;;;;4994931;28;20943;-79
2023/05/22 06:23:32;;;;;;;26.10;23.43;;;22.40;99.90;;;;;;5010949;28;20589;-79
2023/05/22 06:25:58;;;;;;;23.90;21.53;;;22.30;99.90;;;;;;5011765;28;20974;-79
2023/05/22 06:28:25;;;;;;;23.47;21.07;;;22.10;99.90;;;;;;5011206;28;20625;-79
2023/05/22 06:30:51;;;;;;;24.33;21.57;;;22.10;99.90;;;;;;4994871;28;20659;-79
2023/05/22 06:33:20;;;;;;;26.40;23.80;;;22.00;99.90;;;;;;5011228;28;20596;-78
2023/05/22 06:35:46;;;;;;;27.77;24.77;;;21.90;99.90;;;;;;4994536;28;20586;-79
2023/05/22 06:38:12;;;;;;;30.53;25.53;;;21.90;99.90;;;;;;4991483;28;20630;-81
2023/05/22 06:40:40;;;;;;;28.50;25.37;;;21.80;99.90;;;;;;4975427;28;20167;-80
2023/05/22 06:43:13;;;;;;;27.97;25.13;;;21.80;99.90;;;;;;5007466;28;20594;-80
2023/05/22 06:45:50;;;;;;;29.07;25.90;;;21.80;99.90;;;;;;5010757;28;20592;-79
2023/05/22 06:48:21;;;;;;;30.13;26.10;;;21.80;99.90;;;;;;5012993;28;20605;-79
2023/05/22 06:51:23;;;;;;;28.30;25.40;;;21.80;99.90;;;;;;5015808;28;20592;-79
2023/05/22 06:53:51;;;;;;;29.10;26.20;;;21.80;99.90;;;;;;5013845;28;20688;-79
2023/05/22 06:56:23;;;;;;;33.00;28.20;;;21.90;99.90;;;;;;5010448;28;20573;-80
2023/05/22 06:59:10;;;;;;;33.47;29.33;;;22.00;99.90;;;;;;5011060;28;20943;-79
2023/05/22 07:01:48;;;;;;;34.03;29.97;;;22.10;99.90;;;;;;5011524;28;20577;-80
2023/05/22 07:04:18;;;;;;;33.33;29.80;;;22.20;99.90;;;;;;4995742;28;20597;-81
2023/05/22 07:06:56;;;;;;;31.00;27.90;;;22.30;99.90;;;;;;4970962;28;20621;-80
2023/05/22 07:09:23;;;;;;;32.80;28.43;;;22.40;99.90;;;;;;4991851;28;20590;-80
2023/05/22 07:11:49;;;;;;;30.07;26.80;;;22.40;99.90;;;;;;4975506;28;20620;-79
2023/05/22 07:14:16;;;;;;;33.90;28.80;;;22.40;99.90;;;;;;4974497;28;20297;-79
2023/05/22 07:16:42;;;;;;;31.90;28.50;;;22.40;99.90;;;;;;4990809;28;20614;-79
2023/05/22 07:19:09;;;;;;;30.20;27.10;;;22.50;99.90;;;;;;4991772;28;20681;-79
2023/05/22 07:21:35;;;;;;;35.10;31.40;;;22.60;99.90;;;;;;4992829;28;20943;-77
2023/05/22 07:24:07;;;;;;;32.50;29.07;;;22.70;99.90;;;;;;4995803;28;20600;-77
2023/05/22 07:26:34;;;;;;;32.67;29.33;;;22.80;99.90;;;;;;5013324;28;20652;-74
2023/05/22 07:29:05;;;;;;;32.07;28.70;;;22.80;99.90;;;;;;5009959;28;20589;-75
2023/05/22 07:31:33;;;;;;;31.83;28.43;;;22.90;99.90;;;;;;5010047;28;20588;-74
2023/05/22 07:34:00;;;;;;;34.83;30.77;;;23.00;99.90;;;;;;4993850;28;20647;-74
2023/05/22 07:36:27;;;;;;;31.90;28.70;;;23.00;99.90;;;;;;4993231;28;20588;-75
2023/05/22 07:38:53;;;;;;;33.47;30.17;;;23.10;99.90;;;;;;5010206;28;20691;-75
2023/05/22 07:41:20;;;;;;;31.57;28.37;;;23.00;99.90;;;;;;5009569;28;20189;-75
2023/05/22 07:43:47;;;;;;;31.00;27.77;;;23.00;99.90;;;;;;5010251;28;20256;-75
2023/05/22 07:46:16;;;;;;;35.73;31.97;;;23.00;99.90;;;;;;5008973;28;20590;-74
2023/05/22 07:48:52;;;;;;;36.17;32.40;;;23.00;99.90;;;;;;5010116;28;20585;-75
2023/05/22 07:51:18;;;;;;;37.57;33.60;;;23.00;99.90;;;;;;4993054;28;20700;-75
2023/05/22 07:53:47;;;;;;;39.83;35.73;;;23.00;99.90;;;;;;5009942;28;20665;-74
2023/05/22 07:56:13;;;;;;;41.47;36.90;;;23.00;99.90;;;;;;5009568;28;20584;-74
2023/05/22 07:58:39;;;;;;;38.80;34.80;;;23.00;99.90;;;;;;5009868;28;20235;-74
2023/05/22 08:01:07;;;;;;;35.10;31.70;;;23.00;99.90;;;;;;5009266;28;20617;-74
2023/05/22 08:03:32;;;;;;;38.00;33.87;;;23.00;99.90;;;;;;5010668;28;20595;-75
2023/05/22 08:05:58;;;;;;;37.57;33.60;;;23.10;99.90;;;;;;5010626;28;20916;-75
2023/05/22 08:08:24;;;;;;;37.83;33.77;;;23.10;99.90;;;;;;5009459;28;20213;-75
2023/05/22 08:10:50;;;;;;;37.07;33.23;;;23.10;99.90;;;;;;5009549;28;20988;-75
2023/05/22 08:13:17;;;;;;;37.60;33.80;;;23.10;99.90;;;;;;5010573;28;20202;-75
2023/05/22 08:15:43;;;;;;;38.30;34.20;;;23.20;99.90;;;;;;5010822;28;20588;-75
2023/05/22 08:18:10;;;;;;;40.40;36.33;;;23.10;99.90;;;;;;5009271;28;21173;-75
2023/05/22 08:20:37;;;;;;;42.37;38.20;;;23.10;99.90;;;;;;4993551;28;20578;-75
2023/05/22 08:23:03;;;;;;;41.57;37.43;;;23.10;99.90;;;;;;5010562;28;20927;-75
2023/05/22 08:25:28;;;;;;;40.73;36.53;;;23.10;99.90;;;;;;5010345;28;20600;-75
2023/05/22 08:27:54;;;;;;;40.67;36.60;;;23.20;99.90;;;;;;5009601;28;20194;-75
2023/05/22 08:30:20;;;;;;;39.60;35.60;;;23.30;99.90;;;;;;5010554;28;20179;-75
2023/05/22 08:32:45;;;;;;;38.17;34.50;;;23.40;99.90;;;;;;5010589;28;20175;-75
2023/05/22 08:35:13;;;;;;;40.20;36.30;;;23.50;99.90;;;;;;5010364;28;20206;-76
2023/05/22 08:37:38;;;;;;;38.20;34.20;;;23.50;99.90;;;;;;5009332;28;20204;-76
2023/05/22 08:40:07;;;;;;;34.70;31.27;;;23.60;99.90;;;;;;5010516;28;20577;-75
2023/05/22 08:42:33;;;;;;;32.97;29.60;;;23.70;99.90;;;;;;5007485;28;20233;-75
2023/05/22 08:44:59;;;;;;;39.47;35.50;;;23.90;99.90;;;;;;5009367;28;20589;-75
2023/05/22 08:47:25;;;;;;;40.43;36.47;;;24.00;99.90;;;;;;5008928;28;20791;-75
2023/05/22 08:49:53;;;;;;;38.10;34.53;;;24.20;99.90;;;;;;4993112;28;20597;-74
2023/05/22 08:52:30;;;;;;;35.50;31.83;;;24.20;99.90;;;;;;5010037;28;20182;-75
2023/05/22 08:54:56;;;;;;;34.60;31.27;;;24.30;99.90;;;;;;5009500;28;20648;-75
2023/05/22 08:57:23;;;;;;;38.80;34.10;;;24.40;99.90;;;;;;5008666;28;20795;-75
2023/05/22 08:59:49;;;;;;;37.80;34.20;;;24.40;99.90;;;;;;5011602;28;20961;-75
2023/05/22 09:02:16;;;;;;;37.63;33.53;;;24.40;99.90;;;;;;4995885;28;20687;-75
2023/05/22 09:04:42;;;;;;;39.13;35.20;;;24.30;99.90;;;;;;5012902;28;20586;-75
2023/05/22 09:07:08;;;;;;;44.03;39.47;;;24.20;99.90;;;;;;5012842;28;20947;-75
2023/05/22 09:09:40;;;;;;;42.17;37.93;;;24.10;99.90;;;;;;5013867;28;20589;-74
2023/05/22 09:12:08;;;;;;;36.80;33.20;;;24.00;99.90;;;;;;5013810;28;20166;-74
2023/05/22 09:14:39;;;;;;;38.17;34.20;;;23.80;99.90;;;;;;5012089;28;20640;-75
2023/05/22 09:17:05;;;;;;;31.73;28.50;;;23.70;99.90;;;;;;5012387;28;21046;-75
2023/05/22 09:19:31;;;;;;;32.03;28.67;;;23.60;99.90;;;;;;5012428;28;20569;-75
2023/05/22 09:22:05;;;;;;;32.43;29.20;;;23.50;99.90;;;;;;5012314;28;20573;-75
2023/05/22 09:24:37;;;;;;;29.70;26.80;;;23.40;99.90;;;;;;5013195;28;20213;-75
2023/05/22 09:27:05;;;;;;;29.67;25.93;;;23.40;99.90;;;;;;5012465;28;21269;-75
2023/05/22 09:29:31;;;;;;;25.23;22.63;;;23.30;99.90;;;;;;5013587;28;20613;-75
2023/05/22 09:31:59;;;;;;;28.10;25.20;;;23.30;99.90;;;;;;5013391;28;20601;-75
2023/05/22 09:34:28;;;;;;;29.17;26.20;;;23.30;99.90;;;;;;5012587;28;20541;-73
2023/05/22 09:37:02;;;;;;;30.13;27.13;;;23.30;99.90;;;;;;5012990;28;20655;-73
2023/05/22 09:39:39;;;;;;;33.50;27.50;;;23.30;99.90;;;;;;5014799;28;20648;-73
2023/05/22 09:42:06;;;;;;;25.97;23.23;;;23.40;99.90;;;;;;5031474;28;20564;-72
2023/05/22 09:44:32;;;;;;;28.30;25.10;;;23.40;99.90;;;;;;5021017;28;20622;-73
2023/05/22 09:46:58;;;;;;;26.73;23.00;;;23.40;99.90;;;;;;5021503;28;21075;-73
2023/05/22 09:49:23;;;;;;;28.97;22.73;;;23.40;99.90;;;;;;5027213;28;20204;-73
2023/05/22 09:51:53;;;;;;;23.40;21.00;;;23.40;99.90;;;;;;5024679;28;20671;-73
2023/05/22 09:54:20;;;;;;;28.40;23.27;;;23.50;99.90;;;;;;5022956;28;20202;-72
2023/05/22 09:56:49;;;;;;;26.17;22.40;;;23.50;99.90;;;;;;5011428;28;20970;-72
2023/05/22 09:59:20;;;;;;;28.00;25.10;;;23.50;99.90;;;;;;4995517;28;20628;-73
2023/05/22 10:01:48;;;;;;;31.80;26.00;;;23.50;99.90;;;;;;5011672;28;20585;-72
2023/05/22 10:04:17;;;;;;;26.77;24.10;;;23.40;99.90;;;;;;5011669;28;20586;-72
2023/05/22 10:06:49;;;;;;;26.53;23.70;;;23.40;99.90;;;;;;5013164;28;20617;-73
2023/05/22 10:09:16;;;;;;;27.60;24.47;;;23.30;99.90;;;;;;5012330;28;20648;-73
2023/05/22 10:11:42;;;;;;;28.40;24.70;;;23.30;99.90;;;;;;5011317;28;20621;-72
2023/05/22 10:14:08;;;;;;;30.00;25.57;;;23.30;99.90;;;;;;5011385;28;20667;-74
2023/05/22 10:16:38;;;;;;;32.53;27.57;;;23.30;99.90;;;;;;5011511;28;20653;-73
2023/05/22 10:19:05;;;;;;;39.30;26.30;;;23.40;99.90;;;;;;5011193;28;20615;-74
2023/05/22 10:21:32;;;;;;;29.83;26.40;;;23.50;99.90;;;;;;4994983;28;20592;-72
2023/05/22 10:24:01;;;;;;;32.53;27.30;;;23.60;99.90;;;;;;5012520;28;20597;-73
2023/05/22 10:26:28;;;;;;;30.03;26.87;;;23.80;99.90;;;;;;4992868;28;20948;-72
2023/05/22 10:29:03;;;;;;;29.03;26.00;;;24.10;99.90;;;;;;4993230;28;21050;-74
2023/05/22 10:31:41;;;;;;;29.93;24.40;;;24.30;99.90;;;;;;4991163;28;20581;-72
2023/05/22 10:34:33;;;;;;;29.97;26.77;;;24.50;99.90;;;;;;4993086;28;20636;-72
2023/05/22 10:37:02;;;;;;;28.20;25.27;;;24.60;99.90;;;;;;4995138;28;20621;-73
2023/05/22 10:39:39;;;;;;;29.83;26.50;;;24.70;99.90;;;;;;5018673;28;20689;-72
2023/05/22 10:42:13;;;;;;;29.73;25.77;;;24.80;99.90;;;;;;5011934;28;21171;-72
2023/05/22 10:44:39;;;;;;;29.53;24.17;;;24.90;99.90;;;;;;5012570;28;20632;-72
2023/05/22 10:47:10;;;;;;;27.60;24.80;;;24.90;99.90;;;;;;5011948;28;20965;-72
2023/05/22 10:49:36;;;;;;;25.30;22.77;;;24.90;99.90;;;;;;5015739;28;20600;-73
2023/05/22 10:52:07;;;;;;;29.50;25.43;;;24.90;99.90;;;;;;5010918;28;20689;-73
2023/05/22 10:54:44;;;;;;;31.67;25.70;;;24.90;99.90;;;;;;5035536;22;20702;-72
2023/05/22 10:57:14;;;;;;;28.37;25.47;;;24.90;99.90;;;;;;5019041;28;20573;-71
2023/05/22 10:59:41;;;;;;;25.80;23.20;;;24.90;99.90;;;;;;5009980;28;20592;-72
2023/05/22 11:02:19;;;;;;;28.37;25.07;;;25.00;99.90;;;;;;4993316;28;20947;-72
2023/05/22 11:04:44;;;;;;;29.90;25.37;;;25.00;99.90;;;;;;4991967;28;20680;-73
2023/05/22 11:07:13;;;;;;;29.20;24.73;;;25.10;99.90;;;;;;5017029;28;20944;-72
2023/05/22 11:09:42;;;;;;;35.17;24.97;;;25.20;99.90;;;;;;5029929;28;20184;-72
2023/05/22 11:12:27;;;;;;;29.30;26.20;;;25.30;99.90;;;;;;5018836;28;20589;-72
2023/05/22 11:15:04;;;;;;;25.00;22.40;;;25.40;99.90;;;;;;5011306;28;20670;-72
2023/05/22 11:17:50;;;;;;;29.13;24.87;;;25.60;99.90;;;;;;5010284;28;20585;-72
2023/05/22 11:20:24;;;;;;;31.23;26.90;;;25.80;99.90;;;;;;4993723;28;20597;-72
2023/05/22 11:22:59;;;;;;;29.33;26.23;;;25.90;99.90;;;;;;5009268;28;20597;-72
2023/05/22 11:25:26;;;;;;;27.80;24.67;;;26.10;99.90;;;;;;5009611;28;20625;-72
2023/05/22 11:27:53;;;;;;;27.00;23.37;;;26.20;99.90;;;;;;5019195;28;20699;-72
2023/05/22 11:30:23;;;;;;;30.17;24.47;;;26.30;99.90;;;;;;5018805;28;20589;-73
2023/05/22 11:32:49;;;;;;;29.57;26.30;;;26.40;99.90;;;;;;5031017;28;20921;-72
2023/05/22 11:35:19;;;;;;;31.63;26.13;;;26.50;99.90;;;;;;5031035;28;20640;-72
2023/05/22 11:37:47;;;;;;;31.90;26.57;;;26.60;99.90;;;;;;5030809;28;20166;-72
2023/05/22 11:40:15;;;;;;;26.03;23.40;;;26.60;99.90;;;;;;5031112;28;20568;-72
2023/05/22 11:42:41;;;;;;;27.53;24.70;;;26.60;99.90;;;;;;5029215;28;20894;-72
2023/05/22 11:45:07;;;;;;;28.13;25.13;;;26.80;99.90;;;;;;5029783;28;20719;-72
2023/05/22 11:47:33;;;;;;;25.60;22.90;;;26.90;99.90;;;;;;4997761;28;20606;-72
2023/05/22 11:50:00;;;;;;;27.17;24.27;;;27.00;99.90;;;;;;5011329;28;20594;-72
2023/05/22 11:52:34;;;;;;;25.07;22.57;;;27.10;99.90;;;;;;5010488;28;20181;-72
2023/05/22 11:55:01;;;;;;;24.30;21.80;;;27.10;99.90;;;;;;5010931;28;20680;-71
2023/05/22 11:57:27;;;;;;;27.17;24.23;;;27.20;99.90;;;;;;5009676;28;21157;-73
2023/05/22 11:59:53;;;;;;;27.17;23.50;;;27.20;99.90;;;;;;5010648;28;20673;-72
2023/05/22 12:02:19;;;;;;;24.60;22.00;;;27.30;99.90;;;;;;5009478;28;21267;-72
2023/05/22 12:04:44;;;;;;;26.90;24.20;;;27.40;99.90;;;;;;4992974;28;20853;-72
2023/05/22 12:07:10;;;;;;;26.07;23.37;;;27.40;99.90;;;;;;5009988;28;20961;-72
2023/05/22 12:09:41;;;;;;;25.33;22.43;;;27.50;99.90;;;;;;5010648;28;20716;-72
2023/05/22 12:12:10;;;;;;;25.27;22.67;;;27.50;99.90;;;;;;5009433;28;21150;-72
2023/05/22 12:14:37;;;;;;;28.23;23.67;;;27.60;99.90;;;;;;4989540;28;20653;-72
2023/05/22 12:17:03;;;;;;;27.63;24.70;;;27.70;99.90;;;;;;4991286;28;20571;-72
2023/05/22 12:19:29;;;;;;;25.13;22.50;;;27.70;99.90;;;;;;4991418;28;20701;-72
2023/05/22 12:21:56;;;;;;;24.17;21.07;;;27.80;99.90;;;;;;4989519;28;20677;-72
2023/05/22 12:24:24;;;;;;;25.97;21.97;;;27.90;99.90;;;;;;4998558;28;20545;-72
2023/05/22 12:26:53;;;;;;;24.00;21.57;;;27.90;99.90;;;;;;4989895;28;20657;-72
2023/05/22 12:29:22;;;;;;;25.23;22.63;;;27.90;99.90;;;;;;5009647;28;20591;-72
2023/05/22 12:31:48;;;;;;;29.07;21.90;;;28.00;99.90;;;;;;5008475;28;20652;-73
2023/05/22 12:34:17;;;;;;;25.53;22.30;;;27.90;99.90;;;;;;5013793;28;20656;-73
2023/05/22 12:36:46;;;;;;;26.93;23.93;;;27.90;99.90;;;;;;5011526;28;20593;-72